M/V Blue Fin — WDC7379 — position and weather

sailwx.info

Track history (hours):
 
Tides and Currents Weather Stations Pressure Air Temp Water Temp Dewpoint Dewpoint Depression Visibility Wind Speed Wind Dir Waves Ship Positions

M/V Blue Fin

Owner: F/V Northwind, Inc., Seattle, WA. More information available from US FCC via Universal Licensing System and Coast Guard Vessel Documentation Center.

Last reported at 2017-May-24 23:30 UTC. Time now 2017-May-24 23:33 UTC.
Position N 32°36' W 117°30'.

Length 55 m; draft 3 m.

Type: Cargo ship. MMSI: 367070510.

Date/timePositionNaut miles runAvg speedWind from/ knotsBaromVisibWave heightAir tempDewpointWater temp
2017-May-24 23:30N 32°36' W 117°30'510.3
2017-May-24 23:00N 32°37' W 117°24'510.4
2017-May-24 22:30N 32°38' W 117°18'4 8.2
2017-May-24 22:00N 32°40' W 117°14'3 6.7
2017-May-24 21:30N 32°43' W 117°11'  
2017-May-22 05:18N 32°42' W 117°10'0 0.0
2017-May-22 04:12N 32°42' W 117°10'0 0.0
2017-May-22 03:42N 32°42' W 117°10'0 0.0
2017-May-22 03:30N 32°42' W 117°10'0 0.0
2017-May-22 02:54N 32°42' W 117°10'0 0.0
2017-May-21 11:47N 32°42' W 117°10'0 0.0
2017-May-19 16:57N 32°42' W 117°10'2 4.8
2017-May-19 16:30N 32°43' W 117°12'3 5.8
2017-May-19 16:00N 32°41' W 117°14'3 6.6
2017-May-19 15:30N 32°37' W 117°14'3 6.6
2017-May-19 15:00N 32°35' W 117°17'5 5.5
2017-May-19 14:00N 32°31' W 117°21'2 4.4
2017-May-19 13:30N 32°30' W 117°23'2 4.8
2017-May-19 13:00N 32°29' W 117°26'3 6.2
2017-May-19 12:30N 32°27' W 117°29'3 6.2
2017-May-19 12:00N 32°26' W 117°32'3 5.5
2017-May-19 11:30N 32°25' W 117°35'2 4.9
2017-May-19 11:00N 32°24' W 117°38'2 4.5
2017-May-19 10:30N 32°23' W 117°41'2 4.6
2017-May-19 10:00N 32°22' W 117°43'2 4.9
2017-May-19 09:30N 32°20' W 117°42'3 5.1
2017-May-19 08:58N 32°18' W 117°41'2 4.9
2017-May-19 08:30N 32°16' W 117°40'3 5.0
2017-May-19 08:00N 32°13' W 117°39'3 5.1
2017-May-19 07:30N 32°11' W 117°37'3 5.1
2017-May-19 07:00N 32°09' W 117°36'2 4.9
2017-May-19 06:30N 32°06' W 117°35'2 4.9
2017-May-19 06:00N 32°04' W 117°34'2 4.8
2017-May-19 05:30N 32°02' W 117°33'3 5.7
2017-May-19 05:00N 31°59' W 117°32'  
Track history (hours):
 
Tides and Currents Weather Stations Pressure Air Temp Water Temp Dewpoint Dewpoint Depression Visibility Wind Speed Wind Dir Waves Ship Positions

M/V Blue Fin

Owner: F/V Northwind, Inc., Seattle, WA. More information available from US FCC via Universal Licensing System and Coast Guard Vessel Documentation Center.

Last reported at 2017-May-24 23:30 UTC. Time now 2017-May-24 23:33 UTC.
Position N 32°36' W 117°30'.

Length 55 m; draft 3 m.

Type: Cargo ship. MMSI: 367070510.

Date/timePositionNaut miles runAvg speedWind from/ knotsBaromVisibWave heightAir tempDewpointWater temp
2017-May-24 23:30N 32°36' W 117°30'510.3
2017-May-24 23:00N 32°37' W 117°24'510.4
2017-May-24 22:30N 32°38' W 117°18'4 8.2
2017-May-24 22:00N 32°40' W 117°14'3 6.7
2017-May-24 21:30N 32°43' W 117°11'  
2017-May-22 05:18N 32°42' W 117°10'0 0.0
2017-May-22 04:12N 32°42' W 117°10'0 0.0
2017-May-22 03:42N 32°42' W 117°10'0 0.0
2017-May-22 03:30N 32°42' W 117°10'0 0.0
2017-May-22 02:54N 32°42' W 117°10'0 0.0
2017-May-21 11:47N 32°42' W 117°10'0 0.0
2017-May-19 16:57N 32°42' W 117°10'2 4.8
2017-May-19 16:30N 32°43' W 117°12'3 5.8
2017-May-19 16:00N 32°41' W 117°14'3 6.6
2017-May-19 15:30N 32°37' W 117°14'3 6.6
2017-May-19 15:00N 32°35' W 117°17'5 5.5
2017-May-19 14:00N 32°31' W 117°21'2 4.4
2017-May-19 13:30N 32°30' W 117°23'2 4.8
2017-May-19 13:00N 32°29' W 117°26'3 6.2
2017-May-19 12:30N 32°27' W 117°29'3 6.2
2017-May-19 12:00N 32°26' W 117°32'3 5.5
2017-May-19 11:30N 32°25' W 117°35'2 4.9
2017-May-19 11:00N 32°24' W 117°38'2 4.5
2017-May-19 10:30N 32°23' W 117°41'2 4.6
2017-May-19 10:00N 32°22' W 117°43'2 4.9
2017-May-19 09:30N 32°20' W 117°42'3 5.1
2017-May-19 08:58N 32°18' W 117°41'2 4.9
2017-May-19 08:30N 32°16' W 117°40'3 5.0
2017-May-19 08:00N 32°13' W 117°39'3 5.1
2017-May-19 07:30N 32°11' W 117°37'3 5.1
2017-May-19 07:00N 32°09' W 117°36'2 4.9
2017-May-19 06:30N 32°06' W 117°35'2 4.9
2017-May-19 06:00N 32°04' W 117°34'2 4.8
2017-May-19 05:30N 32°02' W 117°33'3 5.7
2017-May-19 05:00N 31°59' W 117°32'  

Dump ship's entire track history